Fayette City, PA (15438)

12:02 PM EDT on October 21, 2014 (GMT -0400)
Belle Vernon | Change Station
CLOSE
Current Station
Personal Weather Station
Location: Belle Vernon, PA
Elevation: 996 ft
Nearby Weather Stations

Elev 996 ft 40.12 °N, 79.85 °W | Updated 0 second ago

Overcast
Overcast
54.5 °F
Feels Like 54.5 °F
N
0.0
Wind Variable Wind from SSW
Gusts 0.0 mph

Today
High -- | Low -- °F
--% Chance of Precip.
Yesterday
High -- | Low -- °F
Precip. -- in
7:36 AM 6:30 PM
Waning Crescent, 5% visible
Pressure 29.90 in
Visibility 10.0 miles
Clouds Few 1500 ft
Scattered Clouds 4700 ft
Overcast 6000 ft
Dew Point 51 °F
Humidity 87%
Rainfall 0.02 in
Snow Depth Not available.
UV 1 out of 12
Pollen .30 out of 12
Air Quality Not available.
Flu Activity Sporadic
METAR KAGC 211553Z 33007G16KT 310V010 10SM FEW015 SCT047 OVC060 11/07 A2988 RMK AO2 RAB26E38 SLP125 P0000 T01110072

More Conditions Fewer Conditions

Pressure 29.90 in
Visibility 10.0 miles
Clouds Few 1500 ft
Scattered Clouds 4700 ft
Overcast 6000 ft
Dew Point 51 °F
Humidity 87%
Rainfall 0.02 in
Snow Depth Not available.
UV 1 out of 12
Pollen .30 out of 12
Air Quality Not available.
Flu Activity Sporadic
METAR KAGC 211553Z 33007G16KT 310V010 10SM FEW015 SCT047 OVC060 11/07 A2988 RMK AO2 RAB26E38 SLP125 P0000 T01110072

More Conditions Fewer Conditions

10-Day Weather Forecast

Almanac

Astronomy

Oct. 21, 2014 Rise Set
Actual Time 7:36 AM EDT 6:30 PM EDT
Civil Twilight 7:08 AM EDT 6:58 PM EDT
Nautical Twilight 6:37 AM EDT 7:30 PM EDT
Astronomical Twilight 6:05 AM EDT 8:01 PM EDT
Moon 5:18 AM EDT 5:24 PM EDT
Length of Visible Light 11h 49m
Length of Day
10h 54m
Tomorrow will be 2m 28s shorter.
Waning Crescent, 5% of the Moon is Illuminated
Today
Waning Crescent
Oct 23
New
Oct 30
First Quarter
Nov 6
Full
Nov 14
Last Quarter

Today's Extremes

State Highs State Lows

Community

WunderPhotos

Upload Photos

1,763,704 photos uploaded!

WunderBlogs® & News

Nearby

Snow Depth

Station Depth Elevation
No new snow has been reported.

Earthquake Activity

City Distance Mag. Time & Date
No recent earthquake activity has been reported nearby.
Minimum magnitude displayed is 2.5.

Coastal Water Temperatures

Place Temperature
No Stations Reporting

Nearby Weather Stations